Celandine — ONDN — position and weather

sailwx.info

Track history (hours):
 
Tides and Currents Weather Stations Pressure Air Temp Water Temp Dewpoint Dewpoint Depression Visibility Wind Speed Wind Dir Waves Ship Positions

Celandine

Last reported at 2014-Jul-23 11:33 UTC. Time now 2014-Jul-23 11:59 UTC.
Position N 51°56' E 004°11'.

Length 162 m; draft 6.2 m.

Type: Ship (hazmat cat A). MMSI: 205476000.

Date/timePositionNaut miles runAvg speedWind from/ knotsBaromVisibWave heightAir tempDewpointWater temp
2014-Jul-23 11:33N 51°56' E 004°11'3 2.7
2014-Jul-23 10:33N 51°54' E 004°14'0 0.0
2014-Jul-23 09:33N 51°54' E 004°14'0 0.0
2014-Jul-23 08:33N 51°54' E 004°14'0 0.0
2014-Jul-23 07:33N 51°54' E 004°14'0 0.0
2014-Jul-23 06:33N 51°54' E 004°14'0 0.0
2014-Jul-23 05:33N 51°54' E 004°14'0 0.0
2014-Jul-23 04:33N 51°54' E 004°14'0 0.0
2014-Jul-23 03:33N 51°54' E 004°14'0 0.0
2014-Jul-23 02:33N 51°54' E 004°14'6 5.9
2014-Jul-23 01:33N 51°58' E 004°07'1212.1
2014-Jul-23 00:33N 52°03' E 003°49'1312.8
2014-Jul-22 23:33N 52°08' E 003°29'1616.1
2014-Jul-22 22:33N 52°17' E 003°08'1616.2
2014-Jul-22 21:33N 52°27' E 002°47'1616.2
2014-Jul-22 20:34N 52°37' E 002°27'1716.6
2014-Jul-22 19:34N 52°48' E 002°07'1716.8
2014-Jul-22 18:34N 52°59' E 001°45'1717.3
2014-Jul-22 17:34N 53°10' E 001°24'1717.1
2014-Jul-22 16:33N 53°21' E 001°00'1716.8
2014-Jul-22 15:32N 53°29' E 000°35'1414.9
2014-Jul-22 14:34N 53°32' E 000°11'1414.1
2014-Jul-22 13:33N 53°38' W 000°10'3 2.7
2014-Jul-22 12:32N 53°40' W 000°14'0 0.0
2014-Jul-22 11:32N 53°40' W 000°14'0 0.0
2014-Jul-22 10:32N 53°40' W 000°14'0 0.0
2014-Jul-22 09:32N 53°40' W 000°14'0 0.0
2014-Jul-22 08:26N 53°40' W 000°14'0 0.0
2014-Jul-22 07:32N 53°40' W 000°14'0 0.0
2014-Jul-22 06:32N 53°40' W 000°14'3 2.9
2014-Jul-22 05:33N 53°38' W 000°10'1312.6
2014-Jul-22 04:33N 53°33' E 000°09'8 7.7
2014-Jul-22 03:33N 53°33' E 000°22'1413.7
2014-Jul-22 02:33N 53°27' E 000°42'1615.9
2014-Jul-22 01:33N 53°19' E 001°06'1616.2
2014-Jul-22 00:33N 53°09' E 001°27'1717.3
2014-Jul-21 23:33N 52°58' E 001°49'5917.2
2014-Jul-21 20:09N 52°20' E 003°03'1116.4
2014-Jul-21 19:29N 52°15' E 003°18'1515.9
2014-Jul-21 18:33N 52°06' E 003°38'1514.7
2014-Jul-21 17:33N 52°00' E 003°60'1010.0
2014-Jul-21 16:33N 51°55' E 004°13'1 1.4
2014-Jul-21 15:33N 51°54' E 004°15'0 0.0
2014-Jul-21 14:33N 51°54' E 004°15'0 0.0
2014-Jul-21 13:33N 51°54' E 004°15'0 0.0
2014-Jul-21 12:33N 51°54' E 004°15'0 0.0
2014-Jul-21 11:33N 51°54' E 004°15'0 0.0
2014-Jul-21 10:30N 51°54' E 004°15'0 0.0
2014-Jul-21 09:27N 51°54' E 004°15'0 0.0
2014-Jul-21 08:30N 51°54' E 004°15'0 0.0
2014-Jul-21 07:33N 51°54' E 004°15'0 0.0
2014-Jul-21 06:33N 51°54' E 004°15'0 0.0
2014-Jul-21 05:30N 51°54' E 004°15'0 0.0
2014-Jul-21 04:33N 51°54' E 004°15'0 0.0
2014-Jul-21 03:30N 51°54' E 004°15'0 0.0
2014-Jul-21 02:33N 51°54' E 004°15'0 0.0
2014-Jul-21 01:33N 51°54' E 004°15'0 0.0
2014-Jul-21 00:30N 51°54' E 004°15'0 0.0
2014-Jul-20 23:33N 51°54' E 004°15'0 0.0
2014-Jul-20 22:33N 51°54' E 004°15'0 0.0
2014-Jul-20 21:33N 51°54' E 004°15'0 0.0
2014-Jul-20 20:24N 51°54' E 004°15'0 0.0
2014-Jul-20 19:33N 51°54' E 004°15'0 0.0
2014-Jul-20 18:33N 51°54' E 004°15'0 0.0
2014-Jul-20 17:33N 51°54' E 004°15'2 2.4
2014-Jul-20 16:33N 51°56' E 004°12'7 7.3
2014-Jul-20 15:33N 51°59' E 004°02'8 8.3
2014-Jul-20 14:33N 51°58' E 003°49'0 0.0
2014-Jul-20 13:32N 51°58' E 003°49'0 0.0
2014-Jul-20 12:32N 51°58' E 003°49'0 0.0
2014-Jul-20 11:26N 51°58' E 003°49'0 0.0
2014-Jul-20 10:33N 51°58' E 003°49'5 5.0
2014-Jul-20 09:34N 52°03' E 003°51'1212.1
2014-Jul-20 08:33N 51°57' E 004°08'3 3.3
2014-Jul-20 07:33N 51°55' E 004°12'0 0.0
2014-Jul-20 06:34N 51°55' E 004°12'0 0.2
2014-Jul-20 05:33N 51°56' E 004°12'9 9.1
2014-Jul-20 04:33N 51°60' E 003°59'1313.2
2014-Jul-20 03:33N 51°58' E 003°38'1413.9
2014-Jul-20 02:33N 51°53' E 003°16'1413.7
2014-Jul-20 01:33N 51°49' E 002°55'1514.9
2014-Jul-20 00:33N 51°43' E 002°33'5 4.8
2014-Jul-19 23:33N 51°43' E 002°26'3 2.5
2014-Jul-19 22:33N 51°41' E 002°28'1515.1
2014-Jul-19 21:33N 51°30' E 002°13'1514.5
2014-Jul-19 20:33N 51°16' E 002°06'1515.2
2014-Jul-19 19:33N 51°06' E 001°47'1616.5
2014-Jul-19 18:33N 50°54' E 001°29'1616.3
2014-Jul-19 17:33N 50°40' E 001°18'1615.9
2014-Jul-19 16:32N 50°29' E 000°59'1716.0
2014-Jul-19 15:27N 50°24' E 000°33'306 8.8
2014-Jul-18 04:33N 53°21' W 006°12'0 0.1
2014-Jul-18 03:32N 53°21' W 006°13'0 0.0
2014-Jul-18 02:26N 53°21' W 006°13'0 0.0
2014-Jul-18 00:26N 53°21' W 006°13'0 0.0
2014-Jul-17 23:26N 53°21' W 006°13'0 0.0
2014-Jul-17 22:32N 53°21' W 006°13'0 0.0
2014-Jul-17 21:32N 53°21' W 006°13'0 0.0
2014-Jul-17 20:32N 53°21' W 006°13'0 0.2
2014-Jul-17 19:33N 53°21' W 006°12'45 5.6
2014-Jul-17 11:32N 52°38' W 005°50'8515.7
2014-Jul-17 06:09N 51°13' W 005°52'915.9
2014-Jul-17 05:33N 51°04' W 005°52'1615.8
2014-Jul-17 04:33N 50°48' W 005°53'13211.6
2014-Jul-16 17:11N 50°14' W 002°33'1518.7
2014-Jul-16 16:22N 50°17' W 002°09'1518.6
2014-Jul-16 15:33N 50°20' W 001°46'1717.5
2014-Jul-16 14:33N 50°23' W 001°19'1615.8
2014-Jul-16 13:34N 50°26' W 000°55'1414.2
2014-Jul-16 12:33N 50°28' W 000°33'1313.4
2014-Jul-16 11:33N 50°31' W 000°12'1313.6
2014-Jul-16 10:34N 50°34' E 000°09'1514.9
2014-Jul-16 09:33N 50°38' E 000°31'1716.8
2014-Jul-16 08:34N 50°47' E 000°54'1817.8
2014-Jul-16 07:33N 50°58' E 001°16'1616.4
2014-Jul-16 06:33N 51°09' E 001°36'1414.3
2014-Jul-16 05:34N 51°20' E 001°49'1413.6
2014-Jul-16 04:33N 51°32' E 002°01'1413.8
2014-Jul-16 03:33N 51°42' E 002°16'1414.4
2014-Jul-16 02:33N 51°52' E 002°33'1615.6
2014-Jul-16 01:33N 52°02' E 002°53'1616.5
2014-Jul-16 00:33N 52°03' E 003°19'1717.1
2014-Jul-15 23:33N 52°03' E 003°47'1414.1
2014-Jul-15 22:33N 51°57' E 004°09'5 4.9
2014-Jul-15 21:33N 51°54' E 004°14'0 0.0
2014-Jul-15 20:32N 51°54' E 004°14'0 0.0
2014-Jul-15 19:32N 51°54' E 004°14'0 0.0
2014-Jul-15 18:32N 51°54' E 004°14'0 0.0
2014-Jul-15 17:32N 51°54' E 004°14'0 0.0
2014-Jul-15 16:32N 51°54' E 004°14'0 0.0
2014-Jul-15 15:32N 51°54' E 004°14'0 0.0
2014-Jul-15 14:32N 51°54' E 004°14'0 0.0
2014-Jul-15 13:32N 51°54' E 004°14'0 0.0
2014-Jul-15 12:32N 51°54' E 004°14'0 0.0
2014-Jul-15 11:32N 51°54' E 004°14'0 0.0
2014-Jul-15 10:32N 51°54' E 004°14'0 0.0
2014-Jul-15 09:29N 51°54' E 004°14'0 0.0
2014-Jul-15 08:32N 51°54' E 004°14'0 0.0
2014-Jul-15 07:32N 51°54' E 004°14'4 3.8
2014-Jul-15 06:33N 51°57' E 004°10'1312.9
2014-Jul-15 05:33N 52°01' E 003°50'7815.6
2014-Jul-15 00:34N 52°48' E 002°09'1716.9
2014-Jul-14 23:34N 52°58' E 001°47'1817.6
2014-Jul-14 22:34N 53°09' E 001°24'2417.4
2014-Jul-14 21:12N 53°23' E 000°52'1117.0
2014-Jul-14 20:33N 53°28' E 000°36'1515.2
2014-Jul-14 19:33N 53°32' E 000°11'1514.6
2014-Jul-14 18:34N 53°39' W 000°11'2 2.3
2014-Jul-14 17:34N 53°40' W 000°14'0 0.0
2014-Jul-14 16:32N 53°40' W 000°14'0 0.0
2014-Jul-14 15:32N 53°40' W 000°14'0 0.0
2014-Jul-14 14:29N 53°40' W 000°14'0 0.0
2014-Jul-14 13:26N 53°40' W 000°14'0 0.0
2014-Jul-14 12:29N 53°40' W 000°14'0 0.0
2014-Jul-14 11:17N 53°40' W 000°14'0 0.0
2014-Jul-14 10:32N 53°40' W 000°14'0 0.0
2014-Jul-14 09:32N 53°40' W 000°14'0 0.0
2014-Jul-14 08:29N 53°40' W 000°14'0 0.0
2014-Jul-14 07:29N 53°40' W 000°14'0 0.0
2014-Jul-14 06:29N 53°40' W 000°14'2 2.4
2014-Jul-14 05:33N 53°39' W 000°11'1110.8
2014-Jul-14 04:34N 53°34' E 000°05'1211.9
2014-Jul-14 03:33N 53°32' E 000°25'1714.5
2014-Jul-14 02:22N 53°24' E 000°50'1614.0
2014-Jul-14 01:15N 53°16' E 001°13'913.8
2014-Jul-14 00:34N 53°10' E 001°25'1514.9
2014-Jul-13 23:34N 53°00' E 001°44'1514.8
2014-Jul-13 22:31N 52°51' E 002°04'6114.8
2014-Jul-13 18:23N 52°12' E 003°22'1316.3
2014-Jul-13 17:33N 52°05' E 003°41'1313.4
2014-Jul-13 16:34N 52°00' E 004°01'10 9.8
2014-Jul-13 15:33N 51°54' E 004°14'1 0.7
2014-Jul-13 14:33N 51°54' E 004°14'0 0.0
2014-Jul-13 13:33N 51°54' E 004°14'0 0.0
2014-Jul-13 12:33N 51°54' E 004°14'  
Track history (hours):
 
Tides and Currents Weather Stations Pressure Air Temp Water Temp Dewpoint Dewpoint Depression Visibility Wind Speed Wind Dir Waves Ship Positions

Celandine

Last reported at 2014-Jul-23 11:33 UTC. Time now 2014-Jul-23 11:59 UTC.
Position N 51°56' E 004°11'.

Length 162 m; draft 6.2 m.

Type: Ship (hazmat cat A). MMSI: 205476000.

Date/timePositionNaut miles runAvg speedWind from/ knotsBaromVisibWave heightAir tempDewpointWater temp
2014-Jul-23 11:33N 51°56' E 004°11'3 2.7
2014-Jul-23 10:33N 51°54' E 004°14'0 0.0
2014-Jul-23 09:33N 51°54' E 004°14'0 0.0
2014-Jul-23 08:33N 51°54' E 004°14'0 0.0
2014-Jul-23 07:33N 51°54' E 004°14'0 0.0
2014-Jul-23 06:33N 51°54' E 004°14'0 0.0
2014-Jul-23 05:33N 51°54' E 004°14'0 0.0
2014-Jul-23 04:33N 51°54' E 004°14'0 0.0
2014-Jul-23 03:33N 51°54' E 004°14'0 0.0
2014-Jul-23 02:33N 51°54' E 004°14'6 5.9
2014-Jul-23 01:33N 51°58' E 004°07'1212.1
2014-Jul-23 00:33N 52°03' E 003°49'1312.8
2014-Jul-22 23:33N 52°08' E 003°29'1616.1
2014-Jul-22 22:33N 52°17' E 003°08'1616.2
2014-Jul-22 21:33N 52°27' E 002°47'1616.2
2014-Jul-22 20:34N 52°37' E 002°27'1716.6
2014-Jul-22 19:34N 52°48' E 002°07'1716.8
2014-Jul-22 18:34N 52°59' E 001°45'1717.3
2014-Jul-22 17:34N 53°10' E 001°24'1717.1
2014-Jul-22 16:33N 53°21' E 001°00'1716.8
2014-Jul-22 15:32N 53°29' E 000°35'1414.9
2014-Jul-22 14:34N 53°32' E 000°11'1414.1
2014-Jul-22 13:33N 53°38' W 000°10'3 2.7
2014-Jul-22 12:32N 53°40' W 000°14'0 0.0
2014-Jul-22 11:32N 53°40' W 000°14'0 0.0
2014-Jul-22 10:32N 53°40' W 000°14'0 0.0
2014-Jul-22 09:32N 53°40' W 000°14'0 0.0
2014-Jul-22 08:26N 53°40' W 000°14'0 0.0
2014-Jul-22 07:32N 53°40' W 000°14'0 0.0
2014-Jul-22 06:32N 53°40' W 000°14'3 2.9
2014-Jul-22 05:33N 53°38' W 000°10'1312.6
2014-Jul-22 04:33N 53°33' E 000°09'8 7.7
2014-Jul-22 03:33N 53°33' E 000°22'1413.7
2014-Jul-22 02:33N 53°27' E 000°42'1615.9
2014-Jul-22 01:33N 53°19' E 001°06'1616.2
2014-Jul-22 00:33N 53°09' E 001°27'1717.3
2014-Jul-21 23:33N 52°58' E 001°49'5917.2
2014-Jul-21 20:09N 52°20' E 003°03'1116.4
2014-Jul-21 19:29N 52°15' E 003°18'1515.9
2014-Jul-21 18:33N 52°06' E 003°38'1514.7
2014-Jul-21 17:33N 52°00' E 003°60'1010.0
2014-Jul-21 16:33N 51°55' E 004°13'1 1.4
2014-Jul-21 15:33N 51°54' E 004°15'0 0.0
2014-Jul-21 14:33N 51°54' E 004°15'0 0.0
2014-Jul-21 13:33N 51°54' E 004°15'0 0.0
2014-Jul-21 12:33N 51°54' E 004°15'0 0.0
2014-Jul-21 11:33N 51°54' E 004°15'0 0.0
2014-Jul-21 10:30N 51°54' E 004°15'0 0.0
2014-Jul-21 09:27N 51°54' E 004°15'0 0.0
2014-Jul-21 08:30N 51°54' E 004°15'0 0.0
2014-Jul-21 07:33N 51°54' E 004°15'0 0.0
2014-Jul-21 06:33N 51°54' E 004°15'0 0.0
2014-Jul-21 05:30N 51°54' E 004°15'0 0.0
2014-Jul-21 04:33N 51°54' E 004°15'0 0.0
2014-Jul-21 03:30N 51°54' E 004°15'0 0.0
2014-Jul-21 02:33N 51°54' E 004°15'0 0.0
2014-Jul-21 01:33N 51°54' E 004°15'0 0.0
2014-Jul-21 00:30N 51°54' E 004°15'0 0.0
2014-Jul-20 23:33N 51°54' E 004°15'0 0.0
2014-Jul-20 22:33N 51°54' E 004°15'0 0.0
2014-Jul-20 21:33N 51°54' E 004°15'0 0.0
2014-Jul-20 20:24N 51°54' E 004°15'0 0.0
2014-Jul-20 19:33N 51°54' E 004°15'0 0.0
2014-Jul-20 18:33N 51°54' E 004°15'0 0.0
2014-Jul-20 17:33N 51°54' E 004°15'2 2.4
2014-Jul-20 16:33N 51°56' E 004°12'7 7.3
2014-Jul-20 15:33N 51°59' E 004°02'8 8.3
2014-Jul-20 14:33N 51°58' E 003°49'0 0.0
2014-Jul-20 13:32N 51°58' E 003°49'0 0.0
2014-Jul-20 12:32N 51°58' E 003°49'0 0.0
2014-Jul-20 11:26N 51°58' E 003°49'0 0.0
2014-Jul-20 10:33N 51°58' E 003°49'5 5.0
2014-Jul-20 09:34N 52°03' E 003°51'1212.1
2014-Jul-20 08:33N 51°57' E 004°08'3 3.3
2014-Jul-20 07:33N 51°55' E 004°12'0 0.0
2014-Jul-20 06:34N 51°55' E 004°12'0 0.2
2014-Jul-20 05:33N 51°56' E 004°12'9 9.1
2014-Jul-20 04:33N 51°60' E 003°59'1313.2
2014-Jul-20 03:33N 51°58' E 003°38'1413.9
2014-Jul-20 02:33N 51°53' E 003°16'1413.7
2014-Jul-20 01:33N 51°49' E 002°55'1514.9
2014-Jul-20 00:33N 51°43' E 002°33'5 4.8
2014-Jul-19 23:33N 51°43' E 002°26'3 2.5
2014-Jul-19 22:33N 51°41' E 002°28'1515.1
2014-Jul-19 21:33N 51°30' E 002°13'1514.5
2014-Jul-19 20:33N 51°16' E 002°06'1515.2
2014-Jul-19 19:33N 51°06' E 001°47'1616.5
2014-Jul-19 18:33N 50°54' E 001°29'1616.3
2014-Jul-19 17:33N 50°40' E 001°18'1615.9
2014-Jul-19 16:32N 50°29' E 000°59'1716.0
2014-Jul-19 15:27N 50°24' E 000°33'306 8.8
2014-Jul-18 04:33N 53°21' W 006°12'0 0.1
2014-Jul-18 03:32N 53°21' W 006°13'0 0.0
2014-Jul-18 02:26N 53°21' W 006°13'0 0.0
2014-Jul-18 00:26N 53°21' W 006°13'0 0.0
2014-Jul-17 23:26N 53°21' W 006°13'0 0.0
2014-Jul-17 22:32N 53°21' W 006°13'0 0.0
2014-Jul-17 21:32N 53°21' W 006°13'0 0.0
2014-Jul-17 20:32N 53°21' W 006°13'0 0.2
2014-Jul-17 19:33N 53°21' W 006°12'45 5.6
2014-Jul-17 11:32N 52°38' W 005°50'8515.7
2014-Jul-17 06:09N 51°13' W 005°52'915.9
2014-Jul-17 05:33N 51°04' W 005°52'1615.8
2014-Jul-17 04:33N 50°48' W 005°53'13211.6
2014-Jul-16 17:11N 50°14' W 002°33'1518.7
2014-Jul-16 16:22N 50°17' W 002°09'1518.6
2014-Jul-16 15:33N 50°20' W 001°46'1717.5
2014-Jul-16 14:33N 50°23' W 001°19'1615.8
2014-Jul-16 13:34N 50°26' W 000°55'1414.2
2014-Jul-16 12:33N 50°28' W 000°33'1313.4
2014-Jul-16 11:33N 50°31' W 000°12'1313.6
2014-Jul-16 10:34N 50°34' E 000°09'1514.9
2014-Jul-16 09:33N 50°38' E 000°31'1716.8
2014-Jul-16 08:34N 50°47' E 000°54'1817.8
2014-Jul-16 07:33N 50°58' E 001°16'1616.4
2014-Jul-16 06:33N 51°09' E 001°36'1414.3
2014-Jul-16 05:34N 51°20' E 001°49'1413.6
2014-Jul-16 04:33N 51°32' E 002°01'1413.8
2014-Jul-16 03:33N 51°42' E 002°16'1414.4
2014-Jul-16 02:33N 51°52' E 002°33'1615.6
2014-Jul-16 01:33N 52°02' E 002°53'1616.5
2014-Jul-16 00:33N 52°03' E 003°19'1717.1
2014-Jul-15 23:33N 52°03' E 003°47'1414.1
2014-Jul-15 22:33N 51°57' E 004°09'5 4.9
2014-Jul-15 21:33N 51°54' E 004°14'0 0.0
2014-Jul-15 20:32N 51°54' E 004°14'0 0.0
2014-Jul-15 19:32N 51°54' E 004°14'0 0.0
2014-Jul-15 18:32N 51°54' E 004°14'0 0.0
2014-Jul-15 17:32N 51°54' E 004°14'0 0.0
2014-Jul-15 16:32N 51°54' E 004°14'0 0.0
2014-Jul-15 15:32N 51°54' E 004°14'0 0.0
2014-Jul-15 14:32N 51°54' E 004°14'0 0.0
2014-Jul-15 13:32N 51°54' E 004°14'0 0.0
2014-Jul-15 12:32N 51°54' E 004°14'0 0.0
2014-Jul-15 11:32N 51°54' E 004°14'0 0.0
2014-Jul-15 10:32N 51°54' E 004°14'0 0.0
2014-Jul-15 09:29N 51°54' E 004°14'0 0.0
2014-Jul-15 08:32N 51°54' E 004°14'0 0.0
2014-Jul-15 07:32N 51°54' E 004°14'4 3.8
2014-Jul-15 06:33N 51°57' E 004°10'1312.9
2014-Jul-15 05:33N 52°01' E 003°50'7815.6
2014-Jul-15 00:34N 52°48' E 002°09'1716.9
2014-Jul-14 23:34N 52°58' E 001°47'1817.6
2014-Jul-14 22:34N 53°09' E 001°24'2417.4
2014-Jul-14 21:12N 53°23' E 000°52'1117.0
2014-Jul-14 20:33N 53°28' E 000°36'1515.2
2014-Jul-14 19:33N 53°32' E 000°11'1514.6
2014-Jul-14 18:34N 53°39' W 000°11'2 2.3
2014-Jul-14 17:34N 53°40' W 000°14'0 0.0
2014-Jul-14 16:32N 53°40' W 000°14'0 0.0
2014-Jul-14 15:32N 53°40' W 000°14'0 0.0
2014-Jul-14 14:29N 53°40' W 000°14'0 0.0
2014-Jul-14 13:26N 53°40' W 000°14'0 0.0
2014-Jul-14 12:29N 53°40' W 000°14'0 0.0
2014-Jul-14 11:17N 53°40' W 000°14'0 0.0
2014-Jul-14 10:32N 53°40' W 000°14'0 0.0
2014-Jul-14 09:32N 53°40' W 000°14'0 0.0
2014-Jul-14 08:29N 53°40' W 000°14'0 0.0
2014-Jul-14 07:29N 53°40' W 000°14'0 0.0
2014-Jul-14 06:29N 53°40' W 000°14'2 2.4
2014-Jul-14 05:33N 53°39' W 000°11'1110.8
2014-Jul-14 04:34N 53°34' E 000°05'1211.9
2014-Jul-14 03:33N 53°32' E 000°25'1714.5
2014-Jul-14 02:22N 53°24' E 000°50'1614.0
2014-Jul-14 01:15N 53°16' E 001°13'913.8
2014-Jul-14 00:34N 53°10' E 001°25'1514.9
2014-Jul-13 23:34N 53°00' E 001°44'1514.8
2014-Jul-13 22:31N 52°51' E 002°04'6114.8
2014-Jul-13 18:23N 52°12' E 003°22'1316.3
2014-Jul-13 17:33N 52°05' E 003°41'1313.4
2014-Jul-13 16:34N 52°00' E 004°01'10 9.8
2014-Jul-13 15:33N 51°54' E 004°14'1 0.7
2014-Jul-13 14:33N 51°54' E 004°14'0 0.0
2014-Jul-13 13:33N 51°54' E 004°14'0 0.0
2014-Jul-13 12:33N 51°54' E 004°14'  

Dump ship's entire track history